Emerald Princess — ZCDP8 — position and weather

sailwx.info

Track history (hours):
 
Tides and Currents Weather Stations Pressure Air Temp Water Temp Dewpoint Dewpoint Depression Visibility Wind Speed Wind Dir Waves Ship Positions

Emerald Princess

Last reported at 2018-May-20 21:00 UTC. Time now 2018-May-20 21:11 UTC.
Position N 47°38' W 122°23'.

Type: Ship. MMSI: 310531000.

Date/timePositionNaut miles runAvg speedWind from/ knotsBaromVisibWave heightAir tempDewpointWater temp
2018-May-20 21:00N 47°38' W 122°23'0 0.0
2018-May-20 20:30N 47°38' W 122°23'0 0.0
2018-May-20 20:00N 47°38' W 122°23'0 0.0
2018-May-20 19:30N 47°38' W 122°23'0 0.0
2018-May-20 19:00N 47°38' W 122°23'0 0.0
2018-May-20 18:29N 47°38' W 122°23'0 0.0
2018-May-20 17:59N 47°38' W 122°23'0 0.0
2018-May-20 17:29N 47°38' W 122°23'0 0.0
2018-May-20 16:59N 47°38' W 122°23'0 0.0
2018-May-20 16:25N 47°38' W 122°23'0 0.0
2018-May-20 15:58N 47°38' W 122°23'0 0.0
2018-May-20 15:28N 47°38' W 122°23'0 0.0
2018-May-20 14:58N 47°38' W 122°23'0 0.0
2018-May-20 14:25N 47°38' W 122°23'0 0.0
2018-May-20 14:00N 47°38' W 122°23'0 0.0
2018-May-20 13:27N 47°38' W 122°23'0 0.0
2018-May-20 13:00N 47°38' W 122°23'1 1.9
2018-May-20 12:31N 47°37' W 122°24'5 9.5
2018-May-20 12:01N 47°40' W 122°28'918.2
2018-May-20 11:31N 47°50' W 122°28'816.8
2018-May-20 11:00N 47°57' W 122°34'1616.2
2018-May-20 10:02N 48°10' W 122°47'017.4
2018-May-20 10:00N 48°10' W 122°48'917.7
2018-May-20 09:30N 48°12' W 123°01'917.5
2018-May-20 09:00N 48°11' W 123°14'713.7
2018-May-20 08:30N 48°10' W 123°24'5 9.1
2018-May-20 08:00N 48°13' W 123°29'612.8
2018-May-20 07:30N 48°19' W 123°28'612.0
2018-May-20 07:00N 48°24' W 123°24'1 1.7
2018-May-20 06:29N 48°25' W 123°24'0 0.0
2018-May-20 05:59N 48°25' W 123°24'0 0.0
2018-May-20 05:28N 48°25' W 123°24'0 0.0
2018-May-20 04:58N 48°25' W 123°24'0 0.0
2018-May-20 04:28N 48°25' W 123°24'0 0.0
2018-May-20 03:58N 48°25' W 123°24'0 0.0
2018-May-20 03:28N 48°25' W 123°24'0 0.0
2018-May-20 03:00N 48°25' W 123°24'0 0.0
2018-May-20 02:30N 48°25' W 123°24'0 0.0
2018-May-20 02:00N 48°25' W 123°24'4545.2
2018-May-20 02:00N 48°24' W 123°18'4 7.6 240 / 111013.3 5.4 17.010.510.0
2018-May-20 01:30N 48°25' W 123°24'0 0.0
2018-May-20 01:00N 48°25' W 123°24'0 0.0
2018-May-20 00:29N 48°25' W 123°24'0 0.3
2018-May-20 00:00N 48°25' W 123°24'3 4.8
2018-May-19 23:28N 48°22' W 123°24'511.6
2018-May-19 23:00N 48°17' W 123°26'611.0
2018-May-19 22:30N 48°13' W 123°32'814.8
2018-May-19 21:57N 48°13' W 123°44'715.2
2018-May-19 21:30N 48°13' W 123°55'815.9
2018-May-19 21:00N 48°17' W 124°05'815.4
2018-May-19 20:31N 48°20' W 124°16'713.5
2018-May-19 20:00N 48°23' W 124°25'713.2
2018-May-19 19:30N 48°25' W 124°34'714.5
2018-May-19 19:00N 48°28' W 124°44'815.1
2018-May-19 18:29N 48°29' W 124°56'715.2
2018-May-19 18:00N 48°29' W 125°07'815.6
2018-May-19 17:30N 48°31' W 125°18'714.5
2018-May-19 17:01N 48°35' W 125°28'713.1
2018-May-19 16:30N 48°39' W 125°36'815.7
2018-May-19 16:01N 48°43' W 125°46'816.0
2018-May-19 15:31N 48°47' W 125°56'1019.5
2018-May-19 15:01N 48°52' W 126°09'1020.0
2018-May-19 14:31N 48°57' W 126°22'1020.4
2018-May-19 14:00N 49°03' W 126°35'1020.4
2018-May-19 13:29N 49°08' W 126°49'1020.4
2018-May-19 13:00N 49°14' W 127°00'5320.6
2018-May-19 10:25N 49°50' W 128°01'920.7
2018-May-19 09:59N 49°56' W 128°12'1020.2
2018-May-19 09:30N 50°03' W 128°23'1020.1
2018-May-19 09:00N 50°09' W 128°35'4286.2
2018-May-19 09:00N 50°06' W 128°30'1429.5 330 / 161018.8 5.4 8.5 5.112.0
2018-May-19 08:31N 50°16' W 128°46'1019.9
2018-May-19 08:00N 50°22' W 128°58'1019.9
2018-May-19 07:30N 50°29' W 129°10'1020.1
2018-May-19 07:01N 50°36' W 129°21'1020.4
2018-May-19 06:30N 50°43' W 129°33'1020.2
2018-May-19 06:00N 50°50' W 129°45'2152.5
2018-May-19 06:00N 50°48' W 129°42'1225.6 300 / 131020.110.8 8.5 5.112.0
2018-May-19 05:30N 50°57' W 129°56'1020.1
2018-May-19 05:00N 51°04' W 130°08'1020.1
2018-May-19 04:30N 51°10' W 130°19'1020.4
2018-May-19 04:00N 51°18' W 130°31'1120.4
2018-May-19 03:29N 51°25' W 130°43'1320.2
2018-May-19 02:51N 51°34' W 130°59'3220.8
2018-May-19 01:18N 51°57' W 131°35'720.7
2018-May-19 00:59N 52°01' W 131°42'1020.4
2018-May-19 00:29N 52°09' W 131°54'1120.6
2018-May-18 23:56N 52°17' W 132°06'11420.4
2018-May-18 18:21N 53°57' W 133°37'720.5
2018-May-18 18:00N 54°04' W 133°40'10766.5
2018-May-18 18:00N 53°54' W 133°36'3032.0 210 / 131019.110.8 7.5 2.710.0
2018-May-18 17:03N 54°23' W 133°48'620.9
2018-May-18 16:45N 54°29' W 133°51'620.5
2018-May-18 16:29N 54°35' W 133°54'251 8.5
2018-May-17 11:00N 58°42' W 135°06'128 5.3 320 / 71023.9 5.4 7.0 4.7 9.0
2018-May-16 11:00N 56°36' W 134°24'9122.8 020 / 211020.0 5.4 7.0 4.7 7.0
2018-May-16 07:00N 55°06' W 134°00'5414.8 340 / 301019.710.8 7.0 4.7 8.0
2018-May-16 03:23N 54°35' W 132°44'820.2
2018-May-16 03:00N 54°35' W 132°31'1120.3
2018-May-16 02:28N 54°35' W 132°12'919.7
2018-May-16 02:00N 54°39' W 131°58'41 3.8
2018-May-15 15:00N 55°18' W 131°36'44 6.2 300 / 91018.810.8 8.5 5.1 8.0
2018-May-15 07:55N 54°35' W 131°24'614.9
2018-May-15 07:30N 54°30' W 131°17'714.6
2018-May-15 07:00N 54°25' W 131°09'713.4
2018-May-15 06:30N 54°19' W 131°02'714.2
2018-May-15 06:01N 54°12' W 131°00'714.5
2018-May-15 05:31N 54°05' W 131°03'714.5
2018-May-15 05:00N 53°58' W 131°05'714.1
2018-May-15 04:30N 53°51' W 131°07'714.1
2018-May-15 04:00N 53°44' W 131°05'714.1
2018-May-15 03:30N 53°37' W 131°03'713.7
2018-May-15 02:59N 53°30' W 131°01'713.4
2018-May-15 02:29N 53°23' W 130°58'714.0
2018-May-15 02:01N 53°18' W 130°52'713.8
2018-May-15 01:29N 53°12' W 130°45'2313.2
2018-May-14 23:45N 52°53' W 130°24'313.1
2018-May-14 23:30N 52°50' W 130°21'713.0
2018-May-14 23:00N 52°45' W 130°15'3265.3
2018-May-14 23:00N 52°42' W 130°12'3 6.7 350 / 371020.9 5.4 9.0 6.910.0
2018-May-14 22:30N 52°40' W 130°09'713.3
2018-May-14 22:00N 52°34' W 130°02'1913.4
2018-May-14 20:35N 52°19' W 129°44'114.0
2018-May-14 20:31N 52°18' W 129°43'1614.2
2018-May-14 19:25N 52°06' W 129°27'613.9
2018-May-14 19:00N 52°01' W 129°21'713.7
2018-May-14 18:30N 51°56' W 129°14'713.7
2018-May-14 18:00N 51°51' W 129°07'4291.6
2018-May-14 18:00N 51°54' W 129°12'1123.7 340 / 271016.110.8 10.0 7.911.0
2018-May-14 17:30N 51°45' W 129°00'714.2
2018-May-14 17:00N 51°40' W 128°53'714.0
2018-May-14 16:30N 51°34' W 128°46'714.1
2018-May-14 16:00N 51°29' W 128°39'714.3
2018-May-14 15:30N 51°23' W 128°32'714.3
2018-May-14 15:00N 51°17' W 128°25'714.9
2018-May-14 14:30N 51°12' W 128°16'815.3
2018-May-14 14:00N 51°08' W 128°06'299.6
2018-May-14 14:00N 51°06' W 128°06'814.1 100 / 61015.0 5.4 11.0 9.011.0
2018-May-14 13:25N 51°02' W 127°55'614.7
2018-May-14 13:00N 50°59' W 127°47'713.5
2018-May-14 12:29N 50°54' W 127°38'815.7
2018-May-14 12:00N 50°50' W 127°28'714.6
2018-May-14 11:31N 50°47' W 127°17'815.8
2018-May-14 11:00N 50°44' W 127°06'918.0
2018-May-14 10:30N 50°41' W 126°53'918.1
2018-May-14 10:00N 50°35' W 126°42'141873.7
2018-May-14 10:00N 50°42' W 127°00'2142.4 170 / 41018.710.8 9.5 8.5 9.0
2018-May-14 09:30N 50°30' W 126°32'1220.3
2018-May-14 08:53N 50°29' W 126°13'717.3
2018-May-14 08:30N 50°27' W 126°03'2416.0
2018-May-14 07:01N 50°20' W 125°27'014.0
2018-May-14 07:01N 50°20' W 125°27'714.1
2018-May-14 06:30N 50°14' W 125°23'714.7
2018-May-14 06:00N 50°07' W 125°19'713.8
2018-May-14 05:30N 50°01' W 125°13'918.3
2018-May-14 05:00N 49°54' W 125°04'1122.4
2018-May-14 04:30N 49°46' W 124°51'1122.3
2018-May-14 04:00N 49°38' W 124°39'1122.0
2018-May-14 03:30N 49°30' W 124°29'1121.6
2018-May-14 03:00N 49°24' W 124°15'1221.7
2018-May-14 02:26N 49°22' W 123°56'922.0
2018-May-14 02:00N 49°21' W 123°42'1221.9
2018-May-14 01:28N 49°19' W 123°24'920.0
2018-May-14 01:00N 49°19' W 123°09'2 5.0
2018-May-14 00:30N 49°17' W 123°07'0 0.1
2018-May-13 23:58N 49°17' W 123°07'0 0.0
2018-May-13 23:28N 49°17' W 123°07'0 0.0
2018-May-13 22:58N 49°17' W 123°07'0 0.0
2018-May-13 22:28N 49°17' W 123°07'0 0.0
2018-May-13 22:00N 49°17' W 123°07'0 0.0
2018-May-13 21:30N 49°17' W 123°07'0 0.0
2018-May-13 21:00N 49°17' W 123°07'0 0.0
2018-May-13 20:30N 49°17' W 123°07'0 0.0
2018-May-13 20:00N 49°17' W 123°07'0 0.0
2018-May-13 19:29N 49°17' W 123°07'0 0.0
2018-May-13 18:59N 49°17' W 123°07'0 0.0
2018-May-13 18:29N 49°17' W 123°07'0 0.0
2018-May-13 17:59N 49°17' W 123°07'0 0.0
2018-May-13 17:28N 49°17' W 123°07'0 0.0
2018-May-13 16:58N 49°17' W 123°07'0 0.0
2018-May-13 16:28N 49°17' W 123°07'0 0.0
2018-May-13 15:58N 49°17' W 123°07'0 0.0
2018-May-13 15:28N 49°17' W 123°07'0 0.0
2018-May-13 15:00N 49°17' W 123°07'0 0.0
2018-May-13 14:30N 49°17' W 123°07'0 0.0
2018-May-13 14:00N 49°17' W 123°07'1 1.6
2018-May-13 13:30N 49°18' W 123°07'4 7.7
2018-May-13 13:00N 49°19' W 123°12'5 9.3
2018-May-13 12:30N 49°16' W 123°18'510.2
2018-May-13 12:00N 49°11' W 123°19'510.6
2018-May-13 11:30N 49°06' W 123°20'510.2
2018-May-13 11:00N 49°01' W 123°17'510.8
2018-May-13 10:30N 48°58' W 123°11'510.8
2018-May-13 10:00N 48°54' W 123°05'3296.2
2018-May-13 10:00N 48°54' W 123°00'4 8.2 350 / 121018.710.8 14.014.013.0
2018-May-13 09:30N 48°50' W 122°59'510.8
2018-May-13 09:00N 48°45' W 123°03'611.7
2018-May-13 08:30N 48°43' W 123°11'5 9.8
2018-May-13 08:00N 48°39' W 123°15'611.8
2018-May-13 07:30N 48°33' W 123°12'611.7
2018-May-13 07:00N 48°27' W 123°10'611.4
2018-May-13 06:30N 48°23' W 123°15'6 0.4
2018-May-12 14:53N 48°25' W 123°24'1 2.3
2018-May-12 14:30N 48°24' W 123°24'4 8.6
2018-May-12 14:00N 48°20' W 123°24'612.4
2018-May-12 13:30N 48°14' W 123°29'916.0
2018-May-12 12:58N 48°14' W 123°42'919.8
2018-May-12 12:30N 48°14' W 123°55'1019.7
2018-May-12 12:00N 48°18' W 124°09'918.2
2018-May-12 11:29N 48°22' W 124°22'713.7
2018-May-12 11:00N 48°24' W 124°31'816.0
2018-May-12 10:31N 48°28' W 124°42'917.3
2018-May-12 10:00N 48°29' W 124°55'6477.5
2018-May-12 10:00N 48°24' W 124°48'1122.1 240 / 101025.7 0.5 10.010.012.0
2018-May-12 09:30N 48°23' W 125°04'917.0
2018-May-12 08:59N 48°15' W 125°10'814.9
2018-May-12 08:29N 48°08' W 125°15'4417.7
2018-May-12 06:00N 47°24' W 125°18'1617.7 280 / 71024.710.8 11.0 9.411.0
2018-May-12 05:06N 47°08' W 125°21'419.6
2018-May-12 04:54N 47°05' W 125°21'819.7
2018-May-12 04:29N 46°56' W 125°21'919.4
2018-May-12 04:00N 46°47' W 125°20'1019.5
2018-May-12 03:30N 46°37' W 125°20'1529.7
2018-May-12 03:00N 46°22' W 125°19'1012.4
2018-May-12 02:14N 46°13' W 125°18'419.1
2018-May-12 02:00N 46°08' W 125°18'1019.1
2018-May-12 01:30N 45°59' W 125°18'1019.3
2018-May-12 01:00N 45°49' W 125°17'1319.6
2018-May-12 00:20N 45°36' W 125°17'619.2
2018-May-12 00:01N 45°30' W 125°16'1019.2
2018-May-11 23:29N 45°20' W 125°16'1319.5
2018-May-11 22:48N 45°06' W 125°15'619.1
2018-May-11 22:30N 45°01' W 125°15'1325.3
2018-May-11 22:00N 44°48' W 125°12'7819.5 340 / 271030.710.8 11.5 8.512.0
2018-May-11 18:00N 43°30' W 125°06'16218.0 350 / 321027.110.8 11.6 8.411.0
2018-May-11 09:00N 40°48' W 125°00'4916.3 350 / 471024.110.8 13.0 9.110.0
2018-May-11 06:00N 40°00' W 124°48'8918.1 350 / 511021.1 5.4 13.0 6.813.0
2018-May-11 01:05N 38°35' W 124°12'418.0
2018-May-11 00:51N 38°31' W 124°10'618.2
2018-May-11 00:30N 38°25' W 124°08'918.3
2018-May-11 00:00N 38°17' W 124°03'918.2
2018-May-10 23:30N 38°08' W 123°59'918.1
2018-May-10 23:00N 37°60' W 123°56'6404.0
2018-May-10 23:00N 37°54' W 123°54'3 6.7 320 / 471021.110.8 13.0 9.110.0
2018-May-10 22:30N 37°51' W 123°52'917.7
2018-May-10 22:00N 37°43' W 123°48'1418.3
2018-May-10 21:13N 37°31' W 123°38'  
Track history (hours):
 
Tides and Currents Weather Stations Pressure Air Temp Water Temp Dewpoint Dewpoint Depression Visibility Wind Speed Wind Dir Waves Ship Positions

Emerald Princess

Last reported at 2018-May-20 21:00 UTC. Time now 2018-May-20 21:11 UTC.
Position N 47°38' W 122°23'.

Type: Ship. MMSI: 310531000.

Date/timePositionNaut miles runAvg speedWind from/ knotsBaromVisibWave heightAir tempDewpointWater temp
2018-May-20 21:00N 47°38' W 122°23'0 0.0
2018-May-20 20:30N 47°38' W 122°23'0 0.0
2018-May-20 20:00N 47°38' W 122°23'0 0.0
2018-May-20 19:30N 47°38' W 122°23'0 0.0
2018-May-20 19:00N 47°38' W 122°23'0 0.0
2018-May-20 18:29N 47°38' W 122°23'0 0.0
2018-May-20 17:59N 47°38' W 122°23'0 0.0
2018-May-20 17:29N 47°38' W 122°23'0 0.0
2018-May-20 16:59N 47°38' W 122°23'0 0.0
2018-May-20 16:25N 47°38' W 122°23'0 0.0
2018-May-20 15:58N 47°38' W 122°23'0 0.0
2018-May-20 15:28N 47°38' W 122°23'0 0.0
2018-May-20 14:58N 47°38' W 122°23'0 0.0
2018-May-20 14:25N 47°38' W 122°23'0 0.0
2018-May-20 14:00N 47°38' W 122°23'0 0.0
2018-May-20 13:27N 47°38' W 122°23'0 0.0
2018-May-20 13:00N 47°38' W 122°23'1 1.9
2018-May-20 12:31N 47°37' W 122°24'5 9.5
2018-May-20 12:01N 47°40' W 122°28'918.2
2018-May-20 11:31N 47°50' W 122°28'816.8
2018-May-20 11:00N 47°57' W 122°34'1616.2
2018-May-20 10:02N 48°10' W 122°47'017.4
2018-May-20 10:00N 48°10' W 122°48'917.7
2018-May-20 09:30N 48°12' W 123°01'917.5
2018-May-20 09:00N 48°11' W 123°14'713.7
2018-May-20 08:30N 48°10' W 123°24'5 9.1
2018-May-20 08:00N 48°13' W 123°29'612.8
2018-May-20 07:30N 48°19' W 123°28'612.0
2018-May-20 07:00N 48°24' W 123°24'1 1.7
2018-May-20 06:29N 48°25' W 123°24'0 0.0
2018-May-20 05:59N 48°25' W 123°24'0 0.0
2018-May-20 05:28N 48°25' W 123°24'0 0.0
2018-May-20 04:58N 48°25' W 123°24'0 0.0
2018-May-20 04:28N 48°25' W 123°24'0 0.0
2018-May-20 03:58N 48°25' W 123°24'0 0.0
2018-May-20 03:28N 48°25' W 123°24'0 0.0
2018-May-20 03:00N 48°25' W 123°24'0 0.0
2018-May-20 02:30N 48°25' W 123°24'0 0.0
2018-May-20 02:00N 48°25' W 123°24'4545.2
2018-May-20 02:00N 48°24' W 123°18'4 7.6 240 / 111013.3 5.4 17.010.510.0
2018-May-20 01:30N 48°25' W 123°24'0 0.0
2018-May-20 01:00N 48°25' W 123°24'0 0.0
2018-May-20 00:29N 48°25' W 123°24'0 0.3
2018-May-20 00:00N 48°25' W 123°24'3 4.8
2018-May-19 23:28N 48°22' W 123°24'511.6
2018-May-19 23:00N 48°17' W 123°26'611.0
2018-May-19 22:30N 48°13' W 123°32'814.8
2018-May-19 21:57N 48°13' W 123°44'715.2
2018-May-19 21:30N 48°13' W 123°55'815.9
2018-May-19 21:00N 48°17' W 124°05'815.4
2018-May-19 20:31N 48°20' W 124°16'713.5
2018-May-19 20:00N 48°23' W 124°25'713.2
2018-May-19 19:30N 48°25' W 124°34'714.5
2018-May-19 19:00N 48°28' W 124°44'815.1
2018-May-19 18:29N 48°29' W 124°56'715.2
2018-May-19 18:00N 48°29' W 125°07'815.6
2018-May-19 17:30N 48°31' W 125°18'714.5
2018-May-19 17:01N 48°35' W 125°28'713.1
2018-May-19 16:30N 48°39' W 125°36'815.7
2018-May-19 16:01N 48°43' W 125°46'816.0
2018-May-19 15:31N 48°47' W 125°56'1019.5
2018-May-19 15:01N 48°52' W 126°09'1020.0
2018-May-19 14:31N 48°57' W 126°22'1020.4
2018-May-19 14:00N 49°03' W 126°35'1020.4
2018-May-19 13:29N 49°08' W 126°49'1020.4
2018-May-19 13:00N 49°14' W 127°00'5320.6
2018-May-19 10:25N 49°50' W 128°01'920.7
2018-May-19 09:59N 49°56' W 128°12'1020.2
2018-May-19 09:30N 50°03' W 128°23'1020.1
2018-May-19 09:00N 50°09' W 128°35'4286.2
2018-May-19 09:00N 50°06' W 128°30'1429.5 330 / 161018.8 5.4 8.5 5.112.0
2018-May-19 08:31N 50°16' W 128°46'1019.9
2018-May-19 08:00N 50°22' W 128°58'1019.9
2018-May-19 07:30N 50°29' W 129°10'1020.1
2018-May-19 07:01N 50°36' W 129°21'1020.4
2018-May-19 06:30N 50°43' W 129°33'1020.2
2018-May-19 06:00N 50°50' W 129°45'2152.5
2018-May-19 06:00N 50°48' W 129°42'1225.6 300 / 131020.110.8 8.5 5.112.0
2018-May-19 05:30N 50°57' W 129°56'1020.1
2018-May-19 05:00N 51°04' W 130°08'1020.1
2018-May-19 04:30N 51°10' W 130°19'1020.4
2018-May-19 04:00N 51°18' W 130°31'1120.4
2018-May-19 03:29N 51°25' W 130°43'1320.2
2018-May-19 02:51N 51°34' W 130°59'3220.8
2018-May-19 01:18N 51°57' W 131°35'720.7
2018-May-19 00:59N 52°01' W 131°42'1020.4
2018-May-19 00:29N 52°09' W 131°54'1120.6
2018-May-18 23:56N 52°17' W 132°06'11420.4
2018-May-18 18:21N 53°57' W 133°37'720.5
2018-May-18 18:00N 54°04' W 133°40'10766.5
2018-May-18 18:00N 53°54' W 133°36'3032.0 210 / 131019.110.8 7.5 2.710.0
2018-May-18 17:03N 54°23' W 133°48'620.9
2018-May-18 16:45N 54°29' W 133°51'620.5
2018-May-18 16:29N 54°35' W 133°54'251 8.5
2018-May-17 11:00N 58°42' W 135°06'128 5.3 320 / 71023.9 5.4 7.0 4.7 9.0
2018-May-16 11:00N 56°36' W 134°24'9122.8 020 / 211020.0 5.4 7.0 4.7 7.0
2018-May-16 07:00N 55°06' W 134°00'5414.8 340 / 301019.710.8 7.0 4.7 8.0
2018-May-16 03:23N 54°35' W 132°44'820.2
2018-May-16 03:00N 54°35' W 132°31'1120.3
2018-May-16 02:28N 54°35' W 132°12'919.7
2018-May-16 02:00N 54°39' W 131°58'41 3.8
2018-May-15 15:00N 55°18' W 131°36'44 6.2 300 / 91018.810.8 8.5 5.1 8.0
2018-May-15 07:55N 54°35' W 131°24'614.9
2018-May-15 07:30N 54°30' W 131°17'714.6
2018-May-15 07:00N 54°25' W 131°09'713.4
2018-May-15 06:30N 54°19' W 131°02'714.2
2018-May-15 06:01N 54°12' W 131°00'714.5
2018-May-15 05:31N 54°05' W 131°03'714.5
2018-May-15 05:00N 53°58' W 131°05'714.1
2018-May-15 04:30N 53°51' W 131°07'714.1
2018-May-15 04:00N 53°44' W 131°05'714.1
2018-May-15 03:30N 53°37' W 131°03'713.7
2018-May-15 02:59N 53°30' W 131°01'713.4
2018-May-15 02:29N 53°23' W 130°58'714.0
2018-May-15 02:01N 53°18' W 130°52'713.8
2018-May-15 01:29N 53°12' W 130°45'2313.2
2018-May-14 23:45N 52°53' W 130°24'313.1
2018-May-14 23:30N 52°50' W 130°21'713.0
2018-May-14 23:00N 52°45' W 130°15'3265.3
2018-May-14 23:00N 52°42' W 130°12'3 6.7 350 / 371020.9 5.4 9.0 6.910.0
2018-May-14 22:30N 52°40' W 130°09'713.3
2018-May-14 22:00N 52°34' W 130°02'1913.4
2018-May-14 20:35N 52°19' W 129°44'114.0
2018-May-14 20:31N 52°18' W 129°43'1614.2
2018-May-14 19:25N 52°06' W 129°27'613.9
2018-May-14 19:00N 52°01' W 129°21'713.7
2018-May-14 18:30N 51°56' W 129°14'713.7
2018-May-14 18:00N 51°51' W 129°07'4291.6
2018-May-14 18:00N 51°54' W 129°12'1123.7 340 / 271016.110.8 10.0 7.911.0
2018-May-14 17:30N 51°45' W 129°00'714.2
2018-May-14 17:00N 51°40' W 128°53'714.0
2018-May-14 16:30N 51°34' W 128°46'714.1
2018-May-14 16:00N 51°29' W 128°39'714.3
2018-May-14 15:30N 51°23' W 128°32'714.3
2018-May-14 15:00N 51°17' W 128°25'714.9
2018-May-14 14:30N 51°12' W 128°16'815.3
2018-May-14 14:00N 51°08' W 128°06'299.6
2018-May-14 14:00N 51°06' W 128°06'814.1 100 / 61015.0 5.4 11.0 9.011.0
2018-May-14 13:25N 51°02' W 127°55'614.7
2018-May-14 13:00N 50°59' W 127°47'713.5
2018-May-14 12:29N 50°54' W 127°38'815.7
2018-May-14 12:00N 50°50' W 127°28'714.6
2018-May-14 11:31N 50°47' W 127°17'815.8
2018-May-14 11:00N 50°44' W 127°06'918.0
2018-May-14 10:30N 50°41' W 126°53'918.1
2018-May-14 10:00N 50°35' W 126°42'141873.7
2018-May-14 10:00N 50°42' W 127°00'2142.4 170 / 41018.710.8 9.5 8.5 9.0
2018-May-14 09:30N 50°30' W 126°32'1220.3
2018-May-14 08:53N 50°29' W 126°13'717.3
2018-May-14 08:30N 50°27' W 126°03'2416.0
2018-May-14 07:01N 50°20' W 125°27'014.0
2018-May-14 07:01N 50°20' W 125°27'714.1
2018-May-14 06:30N 50°14' W 125°23'714.7
2018-May-14 06:00N 50°07' W 125°19'713.8
2018-May-14 05:30N 50°01' W 125°13'918.3
2018-May-14 05:00N 49°54' W 125°04'1122.4
2018-May-14 04:30N 49°46' W 124°51'1122.3
2018-May-14 04:00N 49°38' W 124°39'1122.0
2018-May-14 03:30N 49°30' W 124°29'1121.6
2018-May-14 03:00N 49°24' W 124°15'1221.7
2018-May-14 02:26N 49°22' W 123°56'922.0
2018-May-14 02:00N 49°21' W 123°42'1221.9
2018-May-14 01:28N 49°19' W 123°24'920.0
2018-May-14 01:00N 49°19' W 123°09'2 5.0
2018-May-14 00:30N 49°17' W 123°07'0 0.1
2018-May-13 23:58N 49°17' W 123°07'0 0.0
2018-May-13 23:28N 49°17' W 123°07'0 0.0
2018-May-13 22:58N 49°17' W 123°07'0 0.0
2018-May-13 22:28N 49°17' W 123°07'0 0.0
2018-May-13 22:00N 49°17' W 123°07'0 0.0
2018-May-13 21:30N 49°17' W 123°07'0 0.0
2018-May-13 21:00N 49°17' W 123°07'0 0.0
2018-May-13 20:30N 49°17' W 123°07'0 0.0
2018-May-13 20:00N 49°17' W 123°07'0 0.0
2018-May-13 19:29N 49°17' W 123°07'0 0.0
2018-May-13 18:59N 49°17' W 123°07'0 0.0
2018-May-13 18:29N 49°17' W 123°07'0 0.0
2018-May-13 17:59N 49°17' W 123°07'0 0.0
2018-May-13 17:28N 49°17' W 123°07'0 0.0
2018-May-13 16:58N 49°17' W 123°07'0 0.0
2018-May-13 16:28N 49°17' W 123°07'0 0.0
2018-May-13 15:58N 49°17' W 123°07'0 0.0
2018-May-13 15:28N 49°17' W 123°07'0 0.0
2018-May-13 15:00N 49°17' W 123°07'0 0.0
2018-May-13 14:30N 49°17' W 123°07'0 0.0
2018-May-13 14:00N 49°17' W 123°07'1 1.6
2018-May-13 13:30N 49°18' W 123°07'4 7.7
2018-May-13 13:00N 49°19' W 123°12'5 9.3
2018-May-13 12:30N 49°16' W 123°18'510.2
2018-May-13 12:00N 49°11' W 123°19'510.6
2018-May-13 11:30N 49°06' W 123°20'510.2
2018-May-13 11:00N 49°01' W 123°17'510.8
2018-May-13 10:30N 48°58' W 123°11'510.8
2018-May-13 10:00N 48°54' W 123°05'3296.2
2018-May-13 10:00N 48°54' W 123°00'4 8.2 350 / 121018.710.8 14.014.013.0
2018-May-13 09:30N 48°50' W 122°59'510.8
2018-May-13 09:00N 48°45' W 123°03'611.7
2018-May-13 08:30N 48°43' W 123°11'5 9.8
2018-May-13 08:00N 48°39' W 123°15'611.8
2018-May-13 07:30N 48°33' W 123°12'611.7
2018-May-13 07:00N 48°27' W 123°10'611.4
2018-May-13 06:30N 48°23' W 123°15'6 0.4
2018-May-12 14:53N 48°25' W 123°24'1 2.3
2018-May-12 14:30N 48°24' W 123°24'4 8.6
2018-May-12 14:00N 48°20' W 123°24'612.4
2018-May-12 13:30N 48°14' W 123°29'916.0
2018-May-12 12:58N 48°14' W 123°42'919.8
2018-May-12 12:30N 48°14' W 123°55'1019.7
2018-May-12 12:00N 48°18' W 124°09'918.2
2018-May-12 11:29N 48°22' W 124°22'713.7
2018-May-12 11:00N 48°24' W 124°31'816.0
2018-May-12 10:31N 48°28' W 124°42'917.3
2018-May-12 10:00N 48°29' W 124°55'6477.5
2018-May-12 10:00N 48°24' W 124°48'1122.1 240 / 101025.7 0.5 10.010.012.0
2018-May-12 09:30N 48°23' W 125°04'917.0
2018-May-12 08:59N 48°15' W 125°10'814.9
2018-May-12 08:29N 48°08' W 125°15'4417.7
2018-May-12 06:00N 47°24' W 125°18'1617.7 280 / 71024.710.8 11.0 9.411.0
2018-May-12 05:06N 47°08' W 125°21'419.6
2018-May-12 04:54N 47°05' W 125°21'819.7
2018-May-12 04:29N 46°56' W 125°21'919.4
2018-May-12 04:00N 46°47' W 125°20'1019.5
2018-May-12 03:30N 46°37' W 125°20'1529.7
2018-May-12 03:00N 46°22' W 125°19'1012.4
2018-May-12 02:14N 46°13' W 125°18'419.1
2018-May-12 02:00N 46°08' W 125°18'1019.1
2018-May-12 01:30N 45°59' W 125°18'1019.3
2018-May-12 01:00N 45°49' W 125°17'1319.6
2018-May-12 00:20N 45°36' W 125°17'619.2
2018-May-12 00:01N 45°30' W 125°16'1019.2
2018-May-11 23:29N 45°20' W 125°16'1319.5
2018-May-11 22:48N 45°06' W 125°15'619.1
2018-May-11 22:30N 45°01' W 125°15'1325.3
2018-May-11 22:00N 44°48' W 125°12'7819.5 340 / 271030.710.8 11.5 8.512.0
2018-May-11 18:00N 43°30' W 125°06'16218.0 350 / 321027.110.8 11.6 8.411.0
2018-May-11 09:00N 40°48' W 125°00'4916.3 350 / 471024.110.8 13.0 9.110.0
2018-May-11 06:00N 40°00' W 124°48'8918.1 350 / 511021.1 5.4 13.0 6.813.0
2018-May-11 01:05N 38°35' W 124°12'418.0
2018-May-11 00:51N 38°31' W 124°10'618.2
2018-May-11 00:30N 38°25' W 124°08'918.3
2018-May-11 00:00N 38°17' W 124°03'918.2
2018-May-10 23:30N 38°08' W 123°59'918.1
2018-May-10 23:00N 37°60' W 123°56'6404.0
2018-May-10 23:00N 37°54' W 123°54'3 6.7 320 / 471021.110.8 13.0 9.110.0
2018-May-10 22:30N 37°51' W 123°52'917.7
2018-May-10 22:00N 37°43' W 123°48'1418.3
2018-May-10 21:13N 37°31' W 123°38'  

Dump ship's entire track history